createdAt,value
2017-10-31T00:26:59.666Z,91.20
2017-10-31T00:29:30.181Z,91.20
2017-10-31T00:32:09.183Z,91.20
2017-10-31T00:34:49.633Z,91.10
2017-10-31T00:37:24.677Z,91.10
2017-10-31T00:39:57.145Z,91.20
2017-10-31T00:45:14.969Z,91.30
2017-10-31T00:53:29.991Z,91.20
2017-10-31T01:20:52.227Z,92.00
2017-10-31T01:23:23.318Z,91.90
2017-10-31T01:25:55.711Z,92.00
2017-10-31T01:34:22.525Z,92.00
2017-10-31T01:36:53.792Z,92.00
2017-10-31T01:39:23.494Z,91.80
2017-10-31T01:41:58.342Z,91.80
2017-10-31T01:44:28.853Z,92.10
2017-10-31T01:47:17.317Z,91.80
2017-10-31T02:01:54.641Z,92.00
2017-10-31T02:04:35.712Z,92.90
2017-10-31T02:07:03.932Z,93.10
2017-10-31T02:23:45.498Z,92.50
2017-10-31T02:26:15.555Z,92.30
2017-10-31T02:28:53.945Z,92.20
2017-10-31T02:31:26.416Z,92.20
2017-10-31T02:34:10.389Z,92.10
2017-10-31T02:37:00.843Z,92.20
2017-10-31T02:39:40.091Z,92.40
2017-10-31T02:42:14.831Z,92.30
2017-10-31T02:44:59.271Z,92.10
2017-10-31T04:16:44.986Z,91.60
2017-10-31T04:19:12.813Z,91.60
2017-10-31T04:21:40.435Z,91.70
2017-10-31T04:24:08.070Z,91.70
2017-10-31T04:26:35.660Z,91.70
2017-10-31T04:29:03.459Z,91.80
2017-10-31T04:36:11.145Z,91.70
2017-10-31T04:38:53.746Z,91.50
2017-10-31T05:04:20.308Z,91.80
2017-10-31T05:31:19.763Z,91.90
2017-10-31T05:46:18.309Z,92.10
2017-10-31T06:48:09.811Z,92.00
2017-10-31T06:54:43.740Z,92.90
2017-10-31T06:57:32.671Z,92.90
2017-10-31T07:32:11.785Z,91.90
2017-10-31T07:35:03.183Z,91.90
2017-10-31T08:22:08.272Z,92.20
2017-10-31T08:24:35.918Z,92.10
2017-10-31T08:40:39.552Z,92.10
2017-10-31T08:43:07.103Z,92.00
2017-10-31T08:45:34.973Z,91.70
2017-10-31T08:48:03.841Z,91.60
2017-10-31T08:50:38.962Z,91.30
2017-10-31T08:53:07.336Z,91.30
2017-10-31T08:55:35.177Z,91.40
2017-10-31T08:58:07.255Z,91.40
2017-10-31T09:00:46.875Z,91.30
2017-10-31T09:23:16.893Z,91.60
2017-10-31T09:28:36.867Z,91.80
2017-10-31T09:31:10.672Z,91.80
2017-10-31T09:42:49.416Z,91.90
2017-10-31T09:45:22.405Z,91.40
2017-10-31T09:47:51.025Z,91.80
2017-10-31T09:50:23.851Z,90.70
2017-10-31T09:55:58.245Z,90.70
2017-10-31T09:58:44.560Z,90.90
2017-10-31T10:01:12.151Z,90.80
2017-10-31T10:03:48.410Z,90.80
2017-10-31T10:12:15.696Z,91.00
2017-10-31T10:14:44.054Z,90.90
2017-10-31T10:23:23.547Z,90.80
2017-10-31T10:29:16.004Z,90.10
2017-10-31T10:34:35.035Z,90.00
2017-10-31T10:37:10.476Z,89.50
2017-10-31T10:39:53.768Z,89.50
2017-10-31T10:42:27.891Z,89.40
2017-10-31T10:44:55.500Z,88.90
2017-10-31T10:47:29.787Z,88.70
2017-10-31T10:50:00.470Z,88.50
2017-10-31T10:52:34.861Z,87.40
2017-10-31T10:55:02.627Z,87.50
2017-10-31T10:57:34.953Z,87.80
2017-10-31T11:03:05.372Z,87.50
2017-10-31T11:05:33.002Z,87.20
2017-10-31T11:08:00.624Z,87.80
2017-10-31T11:10:32.606Z,87.70
2017-10-31T11:13:00.248Z,88.40
2017-10-31T11:15:27.814Z,89.20
2017-10-31T11:17:59.858Z,89.80
2017-10-31T11:20:32.308Z,90.00
2017-10-31T11:23:08.898Z,90.10
2017-10-31T11:25:36.425Z,90.20
2017-10-31T11:28:03.928Z,90.20
2017-10-31T11:30:31.415Z,90.00
2017-10-31T11:33:00.603Z,89.80
2017-10-31T11:35:29.000Z,89.90
2017-10-31T11:37:56.545Z,89.70
2017-10-31T11:40:39.717Z,89.40
2017-10-31T11:43:07.307Z,89.40
2017-10-31T11:45:34.823Z,89.10
2017-10-31T11:48:08.700Z,89.20
2017-10-31T11:50:36.258Z,89.10
2017-10-31T11:53:04.131Z,88.80
2017-10-31T11:55:37.558Z,88.80
2017-10-31T11:58:06.253Z,88.70
2017-10-31T12:00:33.874Z,89.60
2017-10-31T12:03:08.584Z,88.40
2017-10-31T12:05:55.653Z,88.20
2017-10-31T12:08:24.085Z,88.50
2017-10-31T12:10:51.754Z,87.80
2017-10-31T12:13:21.305Z,88.10
2017-10-31T12:15:49.985Z,87.80
2017-10-31T12:18:17.511Z,87.50
2017-10-31T12:20:45.893Z,87.60
2017-10-31T12:23:13.595Z,87.50
2017-10-31T12:25:41.246Z,87.60
2017-10-31T12:28:09.405Z,87.80
2017-10-31T12:30:36.947Z,87.50
2017-10-31T12:33:04.480Z,87.40
2017-10-31T12:35:32.055Z,88.00
2017-10-31T12:38:00.520Z,87.20
2017-10-31T12:40:37.857Z,86.90
2017-10-31T12:43:05.603Z,86.80
2017-10-31T12:45:33.150Z,86.80
2017-10-31T12:48:08.871Z,86.50
2017-10-31T12:50:37.050Z,86.20
2017-10-31T12:53:10.743Z,86.20
2017-10-31T12:55:40.303Z,86.20
2017-10-31T12:58:07.957Z,86.00
2017-10-31T13:00:36.272Z,86.00
2017-10-31T13:03:03.796Z,86.00
2017-10-31T13:05:35.193Z,86.00
2017-10-31T13:08:02.908Z,86.00
2017-10-31T13:10:30.413Z,86.30
2017-10-31T13:12:58.680Z,86.40
2017-10-31T13:15:26.167Z,86.30
2017-10-31T13:17:53.940Z,86.20
2017-10-31T13:20:21.399Z,85.60
2017-10-31T13:22:48.894Z,85.70
2017-10-31T13:25:16.373Z,85.70
2017-10-31T13:27:44.107Z,85.50
2017-10-31T13:30:11.888Z,85.40
2017-10-31T13:32:39.974Z,84.90
2017-10-31T13:35:14.251Z,84.90
2017-10-31T13:37:42.024Z,84.70
2017-10-31T13:40:09.757Z,84.20
2017-10-31T13:42:37.503Z,84.50
2017-10-31T13:45:05.028Z,84.60
2017-10-31T13:47:32.728Z,84.20
2017-10-31T13:50:00.452Z,84.30
2017-10-31T13:52:27.962Z,84.00
2017-10-31T13:54:55.450Z,84.10
2017-10-31T13:57:22.938Z,84.00
2017-10-31T13:59:50.443Z,84.00
2017-10-31T14:02:18.886Z,83.60
2017-10-31T14:04:52.616Z,83.50
2017-10-31T14:07:20.302Z,83.80
2017-10-31T14:09:48.814Z,83.30
2017-10-31T14:12:16.502Z,83.40
2017-10-31T14:14:44.035Z,83.40
2017-10-31T14:17:12.543Z,83.50
2017-10-31T14:19:40.397Z,84.10
2017-10-31T14:22:07.906Z,84.10
2017-10-31T14:24:36.203Z,84.30
2017-10-31T14:27:03.666Z,84.20
2017-10-31T14:29:31.146Z,83.70
2017-10-31T14:31:58.627Z,83.70
2017-10-31T14:34:26.091Z,84.10
2017-10-31T14:36:53.691Z,83.80
2017-10-31T14:39:21.160Z,83.70
2017-10-31T14:41:48.670Z,84.00
2017-10-31T14:44:16.928Z,83.90
2017-10-31T14:46:44.436Z,83.90
2017-10-31T14:49:11.899Z,83.80
2017-10-31T14:51:39.374Z,83.70
2017-10-31T14:54:06.894Z,83.90
2017-10-31T14:56:35.149Z,84.20
2017-10-31T14:59:02.615Z,84.20
2017-10-31T15:01:30.214Z,84.20
2017-10-31T15:03:57.732Z,84.40
2017-10-31T15:06:26.211Z,84.60
2017-10-31T15:08:53.728Z,84.40
2017-10-31T15:11:21.311Z,84.30
2017-10-31T15:13:48.799Z,84.30
2017-10-31T15:16:16.257Z,84.20
2017-10-31T15:18:43.839Z,84.50
2017-10-31T15:21:11.322Z,84.70
2017-10-31T15:23:38.779Z,84.30
2017-10-31T15:26:06.252Z,84.50
2017-10-31T15:28:33.729Z,84.60
2017-10-31T15:31:01.232Z,84.90
2017-10-31T15:33:28.763Z,84.90
2017-10-31T15:35:56.985Z,84.70
2017-10-31T15:38:24.606Z,85.00
2017-10-31T15:40:53.225Z,85.30
2017-10-31T15:43:20.977Z,85.50
2017-10-31T15:45:49.386Z,85.70
2017-10-31T15:48:16.871Z,85.90
2017-10-31T15:50:44.397Z,86.20
2017-10-31T15:53:12.888Z,86.00
2017-10-31T15:55:43.055Z,86.20
2017-10-31T15:58:10.650Z,86.20
2017-10-31T16:00:40.789Z,86.30
2017-10-31T16:03:08.321Z,86.40
2017-10-31T16:05:37.008Z,86.50
2017-10-31T16:08:05.593Z,86.60
2017-10-31T16:10:33.133Z,86.50
2017-10-31T16:13:09.315Z,86.90
2017-10-31T16:15:51.114Z,87.20
2017-10-31T16:18:18.815Z,87.60
2017-10-31T16:20:46.627Z,88.60
2017-10-31T16:23:14.130Z,88.90
2017-10-31T16:25:42.392Z,89.70
2017-10-31T16:28:09.955Z,89.70
2017-10-31T16:30:53.239Z,89.80
2017-10-31T16:33:20.839Z,89.80
2017-10-31T16:35:48.282Z,89.90
2017-10-31T16:38:15.737Z,90.30
2017-10-31T16:40:43.193Z,90.50
2017-10-31T16:43:10.637Z,90.70
2017-10-31T16:45:38.127Z,90.40
2017-10-31T16:48:05.615Z,90.90
2017-10-31T16:53:17.741Z,88.70
2017-10-31T16:55:46.383Z,89.50
2017-10-31T16:58:13.911Z,90.00
2017-10-31T17:00:41.435Z,90.00
2017-10-31T17:03:10.282Z,90.20
2017-10-31T17:05:37.896Z,90.30
2017-10-31T17:08:05.414Z,90.30
2017-10-31T17:10:34.239Z,90.20
2017-10-31T17:13:01.767Z,90.30
2017-10-31T17:15:29.336Z,90.10
2017-10-31T17:17:56.895Z,90.20
2017-10-31T17:20:24.411Z,90.30
2017-10-31T17:22:51.917Z,89.50
2017-10-31T17:25:19.433Z,89.30
2017-10-31T17:27:46.914Z,89.40
2017-10-31T17:30:14.599Z,90.00
2017-10-31T17:32:42.194Z,89.30
2017-10-31T17:35:09.782Z,89.30
2017-10-31T17:37:37.308Z,89.10
2017-10-31T17:40:09.553Z,89.10
2017-10-31T17:42:37.167Z,89.10
2017-10-31T17:45:04.769Z,89.10
2017-10-31T17:47:32.291Z,89.00
2017-10-31T17:50:24.817Z,89.10
2017-10-31T17:52:52.402Z,89.10
2017-10-31T17:55:20.391Z,89.20
2017-10-31T17:57:58.584Z,89.20
2017-10-31T18:00:26.112Z,89.00
2017-10-31T18:02:53.628Z,89.50
2017-10-31T18:05:21.246Z,89.70
2017-10-31T18:07:50.028Z,89.80
2017-10-31T18:10:17.568Z,90.00
2017-10-31T18:12:45.128Z,89.80
2017-10-31T18:15:12.873Z,89.90
2017-10-31T18:17:44.901Z,89.80
2017-10-31T18:20:12.429Z,89.90
2017-10-31T18:22:39.962Z,89.70
2017-10-31T18:25:07.482Z,89.60
2017-10-31T18:27:35.010Z,89.60
2017-10-31T18:30:02.519Z,89.60
2017-10-31T18:32:30.030Z,89.50
2017-10-31T18:34:59.691Z,89.60
2017-10-31T18:37:28.150Z,90.00
2017-10-31T18:39:55.684Z,90.00
2017-10-31T18:42:32.654Z,90.00
2017-10-31T18:47:34.143Z,90.10
2017-10-31T18:50:01.674Z,90.60
2017-10-31T18:52:29.149Z,90.40
2017-10-31T18:54:56.641Z,90.50
2017-10-31T18:57:24.997Z,90.50
2017-10-31T18:59:52.696Z,90.60
2017-10-31T19:02:20.233Z,90.80
2017-10-31T19:04:47.773Z,90.90
2017-10-31T19:07:15.270Z,90.80
2017-10-31T19:09:43.497Z,91.20
2017-10-31T19:12:11.807Z,91.20
2017-10-31T19:14:39.285Z,91.20
2017-10-31T19:17:06.760Z,91.30
2017-10-31T19:19:34.276Z,91.30
2017-10-31T19:22:01.814Z,91.50
2017-10-31T19:24:29.341Z,91.50
2017-10-31T19:26:56.880Z,91.40
2017-10-31T19:29:24.385Z,91.30
2017-10-31T19:31:51.923Z,91.30
2017-10-31T19:34:22.203Z,91.20
2017-10-31T19:36:49.737Z,91.20
2017-10-31T19:39:17.250Z,91.20
2017-10-31T19:41:44.794Z,91.20
2017-10-31T19:44:12.291Z,91.10
2017-10-31T19:46:39.764Z,91.20
2017-10-31T19:49:07.340Z,91.40
2017-10-31T19:51:34.951Z,91.50
2017-10-31T19:54:02.490Z,91.50
2017-10-31T19:56:30.000Z,91.60
2017-10-31T19:58:58.269Z,91.90
2017-10-31T20:01:25.802Z,91.90
2017-10-31T20:03:54.123Z,92.00
2017-10-31T20:06:21.853Z,92.00
2017-10-31T20:08:50.160Z,92.20
2017-10-31T20:11:17.710Z,92.10
2017-10-31T20:13:45.724Z,92.20
2017-10-31T20:16:13.366Z,92.10
2017-10-31T20:18:40.897Z,92.20
2017-10-31T20:21:08.417Z,92.20
2017-10-31T20:23:35.898Z,92.20
2017-10-31T20:26:03.404Z,92.20
2017-10-31T20:28:31.031Z,92.30
2017-10-31T20:30:59.315Z,92.40
2017-10-31T20:33:26.842Z,92.40
2017-10-31T20:35:54.377Z,92.30
2017-10-31T20:38:21.882Z,92.40
2017-10-31T20:40:49.409Z,92.40
2017-10-31T20:43:16.937Z,92.50
2017-10-31T20:45:44.467Z,92.50
2017-10-31T20:48:11.976Z,92.60
2017-10-31T20:50:39.451Z,92.70
2017-10-31T20:53:07.856Z,92.60
2017-10-31T20:55:35.452Z,92.40
2017-10-31T20:58:03.157Z,92.60
2017-10-31T21:00:30.702Z,92.80
2017-10-31T21:02:58.279Z,92.70
2017-10-31T21:05:25.873Z,92.60
2017-10-31T21:07:53.380Z,92.90
2017-10-31T21:10:20.960Z,92.80
2017-10-31T21:12:48.463Z,92.90
2017-10-31T21:15:24.933Z,92.90
2017-10-31T21:17:53.927Z,92.80
2017-10-31T21:20:21.460Z,92.80
2017-10-31T21:22:48.934Z,93.00
2017-10-31T21:25:16.419Z,93.10
2017-10-31T21:27:43.973Z,93.20
2017-10-31T21:30:11.560Z,93.40
2017-10-31T21:32:39.120Z,93.40
2017-10-31T21:35:07.407Z,93.50
2017-10-31T21:37:35.770Z,93.60
2017-10-31T21:40:03.279Z,93.50
2017-10-31T21:42:30.827Z,93.70
2017-10-31T21:44:58.310Z,93.70
2017-10-31T21:47:25.860Z,93.70
2017-10-31T21:49:53.337Z,93.70
2017-10-31T21:52:20.808Z,93.90
2017-10-31T21:54:48.291Z,93.80
2017-10-31T21:57:15.804Z,93.90
2017-10-31T21:59:43.296Z,93.90
2017-10-31T22:02:11.571Z,93.90
2017-10-31T22:04:39.043Z,93.90
2017-10-31T22:07:06.555Z,93.90
2017-10-31T22:09:34.043Z,93.80
2017-10-31T22:12:02.295Z,94.00
2017-10-31T22:14:29.776Z,93.70
2017-10-31T22:16:57.314Z,93.80
2017-10-31T22:19:24.778Z,93.90
2017-10-31T22:21:52.259Z,93.90
2017-10-31T22:24:19.774Z,94.50
2017-10-31T22:26:47.276Z,94.50
2017-10-31T22:29:15.567Z,94.00
2017-10-31T22:31:43.059Z,94.00
2017-10-31T22:34:10.532Z,94.00
2017-10-31T22:36:37.995Z,94.30
2017-10-31T22:39:05.517Z,93.90
2017-10-31T22:41:33.008Z,94.30
2017-10-31T22:44:00.490Z,93.90
2017-10-31T22:46:28.754Z,93.80
2017-10-31T22:48:56.312Z,93.80
2017-10-31T22:51:23.847Z,93.70
2017-10-31T22:53:51.407Z,93.70
2017-10-31T22:56:18.932Z,93.80
2017-10-31T22:58:46.466Z,93.80
2017-10-31T23:01:14.856Z,93.70
2017-10-31T23:03:42.636Z,93.70
2017-10-31T23:06:10.136Z,93.70
2017-10-31T23:08:38.491Z,93.60
2017-10-31T23:11:06.135Z,93.60
2017-10-31T23:13:33.641Z,93.60
2017-10-31T23:16:01.224Z,93.60
2017-10-31T23:18:29.492Z,93.70
2017-10-31T23:20:57.771Z,93.70
2017-10-31T23:23:26.029Z,93.80
2017-10-31T23:25:53.484Z,93.70
2017-10-31T23:28:20.974Z,93.70
2017-10-31T23:30:48.444Z,93.70
2017-10-31T23:33:15.964Z,93.80
2017-10-31T23:35:43.435Z,93.90
2017-10-31T23:38:11.703Z,93.90
2017-10-31T23:40:39.951Z,93.80
2017-10-31T23:43:07.440Z,93.80
2017-10-31T23:45:35.664Z,93.80
2017-10-31T23:48:03.143Z,93.80
2017-10-31T23:50:30.631Z,94.10
2017-10-31T23:52:59.992Z,93.90
2017-10-31T23:55:27.516Z,93.90
2017-10-31T23:57:55.000Z,93.90
